Temp: 11.6°C   Baro: 993.0mb
  Wind: 2.9mph   Dir: SSE (160°)
  Rain: 0.8mm (0.0mm/hr)
  Solar: 0W/m2  Hum: 76%
 
Bath Spa Weather Station Historical Data
Daily Summary for June 19, 2019 Units:  Metric    English   Both
Daily Weekly Monthly Yearly Custom
  High: Low: Average:
Temperature: 14.8 °C 6.2 °C 10.6 °C
Dew Point: 9.7 °C 5 °C 7.8 °C
Humidity: 92% 66.4% 84%
Wind Speed: 14.8km/h 0km/h 4.7km/h
Wind Gust: 27.4km/h - -
Wind- - WSW
Pressure: 1005.6 hPa 997.2 hPa -
Precipitation: 0 mm    
Historical Graphs
 
 
Tabular Data for June 19, 2019
Time Temperature Dew Point Pressure Wind Wind Speed Wind Gust Humidity Rainfall Rate (Hourly) solar
00:04 10.7 °C 8.1 °C 997.5 hPa West 3.2 km/h 8 km/h 84% 0 mm 0 W/m2
00:09 10.8 °C 8.2 °C 997.5 hPa SW 3.4 km/h 9.7 km/h 84% 0 mm 0 W/m2
00:14 10.8 °C 8.2 °C 997.5 hPa SW 1.8 km/h 6.4 km/h 84% 0 mm 0 W/m2
00:19 10.7 °C 8.2 °C 997.5 hPa SW 1.3 km/h 6.4 km/h 84.6% 0 mm 0 W/m2
00:24 10.7 °C 8.3 °C 997.5 hPa WSW 3.7 km/h 9.7 km/h 85% 0 mm 0 W/m2
00:29 10.7 °C 8.3 °C 997.5 hPa WSW 2.4 km/h 9.7 km/h 85% 0 mm 0 W/m2
00:34 10.7 °C 8.3 °C 997.5 hPa WSW 6.3 km/h 14.5 km/h 85% 0 mm 0 W/m2
00:39 10.7 °C 8.3 °C 997.5 hPa SW 2.6 km/h 8 km/h 85% 0 mm 0 W/m2
00:44 10.7 °C 8.3 °C 997.5 hPa SSW 2.7 km/h 8 km/h 85% 0 mm 0 W/m2
00:49 10.7 °C 8.3 °C 997.5 hPa WSW 7.1 km/h 14.5 km/h 85% 0 mm 0 W/m2
00:54 10.7 °C 8.3 °C 997.5 hPa WSW 8.5 km/h 14.5 km/h 85% 0 mm 0 W/m2
00:59 10.7 °C 8.3 °C 997.5 hPa SW 7.9 km/h 16.1 km/h 85% 0 mm 0 W/m2
01:04 10.8 °C 8.4 °C 997.5 hPa WSW 8 km/h 16.1 km/h 85% 0 mm 0 W/m2
01:09 10.8 °C 8.4 °C 997.5 hPa SW 6.9 km/h 14.5 km/h 85% 0 mm 0 W/m2
01:14 10.8 °C 8.4 °C 997.5 hPa SW 4.7 km/h 12.9 km/h 85% 0 mm 0 W/m2
01:19 10.8 °C 8.4 °C 997.5 hPa SW 6.1 km/h 11.3 km/h 85% 0 mm 0 W/m2
01:24 10.8 °C 8.4 °C 997.5 hPa SW 2.6 km/h 9.7 km/h 85% 0 mm 0 W/m2
01:29 10.8 °C 8.4 °C 997.5 hPa SW 4.7 km/h 12.9 km/h 85% 0 mm 0 W/m2
01:34 10.8 °C 8.4 °C 997.5 hPa WSW 4.8 km/h 12.9 km/h 85% 0 mm 0 W/m2
01:39 10.9 °C 8.5 °C 997.5 hPa WSW 4.5 km/h 14.5 km/h 85% 0 mm 0 W/m2
01:44 10.9 °C 8.5 °C 997.5 hPa WSW 3.7 km/h 14.5 km/h 85% 0 mm 0 W/m2
01:49 10.8 °C 8.4 °C 997.5 hPa WSW 6.6 km/h 14.5 km/h 85% 0 mm 0 W/m2
01:54 10.8 °C 8.4 °C 997.5 hPa SW 5.8 km/h 12.9 km/h 85% 0 mm 0 W/m2
01:59 10.8 °C 8.4 °C 997.5 hPa SW 5.1 km/h 12.9 km/h 85% 0 mm 0 W/m2
02:04 10.7 °C 8.3 °C 997.5 hPa SW 6.8 km/h 12.9 km/h 85% 0 mm 0 W/m2
02:09 10.7 °C 8.3 °C 997.5 hPa SW 3.9 km/h 12.9 km/h 85% 0 mm 0 W/m2
02:14 10.7 °C 8.3 °C 997.5 hPa SW 5.1 km/h 9.7 km/h 85% 0 mm 0 W/m2
02:19 10.7 °C 8.3 °C 997.5 hPa SW 6.3 km/h 11.3 km/h 85% 0 mm 0 W/m2
02:24 10.7 °C 8.3 °C 997.5 hPa SW 6.3 km/h 11.3 km/h 85% 0 mm 0 W/m2
02:29 10.7 °C 8.3 °C 997.5 hPa WSW 6.1 km/h 12.9 km/h 85.1% 0 mm 0 W/m2
02:34 10.6 °C 8.4 °C 997.5 hPa SW 6.8 km/h 12.9 km/h 86% 0 mm 0 W/m2
02:39 10.6 °C 8.4 °C 997.2 hPa SW 8.2 km/h 12.9 km/h 86% 0 mm 0 W/m2
02:44 10.5 °C 8.3 °C 997.2 hPa SW 5.6 km/h 11.3 km/h 86% 0 mm 0 W/m2
02:49 10.5 °C 8.3 °C 997.2 hPa WSW 7.2 km/h 14.5 km/h 86% 0 mm 0 W/m2
02:54 10.4 °C 8.2 °C 997.2 hPa SW 4.8 km/h 12.9 km/h 86% 0 mm 0 W/m2
02:59 10.4 °C 8.2 °C 997.2 hPa SW 8 km/h 14.5 km/h 86% 0 mm 0 W/m2
03:04 10.3 °C 8.2 °C 997.5 hPa WSW 6.6 km/h 12.9 km/h 86% 0 mm 0 W/m2
03:09 10.3 °C 8.2 °C 997.5 hPa SW 10.1 km/h 22.5 km/h 86.6% 0 mm 0 W/m2
03:14 10.3 °C 8.2 °C 997.5 hPa WSW 5.8 km/h 12.9 km/h 87% 0 mm 0 W/m2
03:19 10.3 °C 8.2 °C 997.2 hPa SW 5.5 km/h 12.9 km/h 87% 0 mm 0 W/m2
03:24 10.2 °C 8.1 °C 997.5 hPa WSW 7.2 km/h 12.9 km/h 87% 0 mm 0 W/m2
03:29 10.2 °C 8.1 °C 997.5 hPa SW 6 km/h 11.3 km/h 87% 0 mm 0 W/m2
03:34 10.2 °C 8.1 °C 997.5 hPa SW 5 km/h 11.3 km/h 87% 0 mm 0 W/m2
03:39 10.1 °C 8 °C 997.2 hPa SW 5.8 km/h 11.3 km/h 87% 0 mm 0 W/m2
03:44 10.1 °C 8 °C 997.2 hPa SW 4.8 km/h 9.7 km/h 87% 0 mm 0 W/m2
03:49 10 °C 7.9 °C 997.2 hPa SW 7.1 km/h 14.5 km/h 87% 0 mm 0 W/m2
03:54 9.9 °C 7.8 °C 997.5 hPa SW 5.3 km/h 14.5 km/h 87% 0 mm 0 W/m2
03:59 9.9 °C 7.8 °C 997.5 hPa WSW 5 km/h 11.3 km/h 87.2% 0 mm 0 W/m2
04:04 9.9 °C 7.9 °C 997.5 hPa WSW 3.2 km/h 11.3 km/h 87.7% 0 mm 0 W/m2
04:09 9.8 °C 7.7 °C 997.2 hPa WSW 3.9 km/h 8 km/h 87% 0 mm 0 W/m2
04:14 9.8 °C 7.8 °C 997.5 hPa WSW 3.1 km/h 6.4 km/h 88% 0 mm 0 W/m2
04:19 9.7 °C 7.8 °C 997.5 hPa WSW 1 km/h 6.4 km/h 88% 0 mm 0 W/m2
04:24 9.7 °C 7.8 °C 997.5 hPa WSW 2.7 km/h 8 km/h 88% 0 mm 0 W/m2
04:29 9.6 °C 7.7 °C 997.5 hPa WSW 0.8 km/h 8 km/h 88% 0 mm 0 W/m2
04:34 9.5 °C 7.6 °C 997.5 hPa WSW 0.8 km/h 3.2 km/h 88% 0 mm 0 W/m2
04:39 9.4 °C 7.6 °C 997.5 hPa Calm   1.6 km/h 88% 0 mm 0 W/m2
04:44 9.4 °C 7.5 °C 997.5 hPa Calm   1.6 km/h 88% 0 mm 0 W/m2
04:49 9.2 °C 7.3 °C 997.5 hPa WSW 0.3 km/h 1.6 km/h 88% 0 mm 0 W/m2
04:54 9.2 °C 7.3 °C 997.5 hPa WSW 1.4 km/h 6.4 km/h 88.1% 0 mm 0 W/m2
04:59 9.2 °C 7.4 °C 997.5 hPa WSW 2.6 km/h 6.4 km/h 89% 0 mm 0 W/m2
05:04 9.2 °C 7.4 °C 997.5 hPa WSW 2.7 km/h 4.8 km/h 89% 0 mm 0 W/m2
05:09 9.1 °C 7.4 °C 997.5 hPa WSW 3.4 km/h 6.4 km/h 89% 0 mm 0 W/m2
05:14 9.2 °C 7.5 °C 997.5 hPa WSW 3.2 km/h 8 km/h 89% 0 mm 0 W/m2
05:19 9.3 °C 7.7 °C 997.5 hPa West 4.3 km/h 11.3 km/h 90% 0 mm 0 W/m2
05:24 9.3 °C 7.7 °C 997.5 hPa WNW 3.2 km/h 11.3 km/h 90% 0 mm 0 W/m2
05:29 9.2 °C 7.7 °C 997.5 hPa West 4 km/h 14.5 km/h 90% 0 mm 0 W/m2
05:34 9.2 °C 7.7 °C 997.5 hPa WSW 3.5 km/h 14.5 km/h 90% 0 mm 0 W/m2
05:39 9.2 °C 7.6 °C 997.5 hPa WSW 3.2 km/h 11.3 km/h 90% 0 mm 0 W/m2
05:44 9.2 °C 7.6 °C 997.5 hPa WSW 5 km/h 11.3 km/h 90% 0 mm 0 W/m2
05:49 9.3 °C 7.7 °C 997.5 hPa WSW 6 km/h 12.9 km/h 90% 0 mm 0 W/m2
05:54 9.3 °C 7.8 °C 997.5 hPa WSW 4.2 km/h 11.3 km/h 90% 0 mm 0 W/m2
05:59 9.4 °C 7.8 °C 997.5 hPa WSW 3.9 km/h 11.3 km/h 90% 0 mm 0 W/m2
06:04 9.4 °C 7.8 °C 997.5 hPa WSW 7.1 km/h 16.1 km/h 90% 0 mm 0 W/m2
06:09 9.4 °C 7.8 °C 997.5 hPa WSW 3.4 km/h 11.3 km/h 90% 0 mm 0 W/m2
06:14 9.3 °C 7.7 °C 997.5 hPa WSW 4.7 km/h 12.9 km/h 90% 0 mm 0 W/m2
06:19 9.2 °C 7.7 °C 997.5 hPa West 2.9 km/h 8 km/h 90% 0 mm 0 W/m2
06:24 9.2 °C 7.6 °C 997.5 hPa West 3.7 km/h 9.7 km/h 90% 0 mm 0 W/m2
06:29 9.1 °C 7.5 °C 997.5 hPa West 2.6 km/h 8 km/h 90% 0 mm 0 W/m2
06:34 9 °C 7.4 °C 997.5 hPa West 1 km/h 8 km/h 90% 0 mm 0 W/m2
06:39 8.8 °C 7.3 °C 997.9 hPa West 3.2 km/h 9.7 km/h 90% 0 mm 0 W/m2
06:44 8.7 °C 7.2 °C 997.9 hPa WNW 1.3 km/h 4.8 km/h 90% 0 mm 0 W/m2
06:49 8.7 °C 7.2 °C 997.9 hPa WNW 1 km/h 4.8 km/h 90.1% 0 mm 0 W/m2
06:54 8.7 °C 7.3 °C 997.9 hPa West 1.9 km/h 8 km/h 91% 0 mm 0 W/m2
06:59 8.6 °C 7.2 °C 997.9 hPa WNW 1.8 km/h 6.4 km/h 91% 0 mm 0 W/m2
07:04 8.7 °C 7.2 °C 997.9 hPa WNW 1.8 km/h 6.4 km/h 91% 0 mm 0 W/m2
07:09 8.6 °C 7.2 °C 997.9 hPa WNW 1.6 km/h 6.4 km/h 91% 0 mm 0 W/m2
07:14 8.6 °C 7.2 °C 997.9 hPa Calm   6.4 km/h 91% 0 mm 0 W/m2
07:19 8.7 °C 7.3 °C 998.2 hPa WNW 1.9 km/h 4.8 km/h 91% 0 mm 0 W/m2
07:24 8.7 °C 7.3 °C 998.2 hPa WNW 2.3 km/h 6.4 km/h 91% 0 mm 0 W/m2
07:29 8.7 °C 7.3 °C 998.2 hPa WNW 1.3 km/h 6.4 km/h 91% 0 mm 0 W/m2
07:34 8.7 °C 7.3 °C 998.2 hPa West 3.4 km/h 8 km/h 91.3% 0 mm 0 W/m2
07:39 8.8 °C 7.6 °C 998.2 hPa West 0.5 km/h 6.4 km/h 92% 0 mm 0 W/m2
07:44 8.7 °C 7.6 °C 998.2 hPa West 0.6 km/h 4.8 km/h 92% 0 mm 5 W/m2
07:49 8.7 °C 7.4 °C 998.2 hPa West 2.7 km/h 9.7 km/h 91.5% 0 mm 7 W/m2
07:54 8.7 °C 7.3 °C 998.5 hPa Calm   3.2 km/h 91.5% 0 mm 11 W/m2
07:59 8.6 °C 7.4 °C 998.5 hPa WSW 0.6 km/h 3.2 km/h 92% 0 mm 12 W/m2
08:04 8.6 °C 7.4 °C 998.5 hPa WSW 1.9 km/h 6.4 km/h 92% 0 mm 14 W/m2
08:09 8.6 °C 7.4 °C 998.5 hPa Calm   1.6 km/h 92% 0 mm 19 W/m2
08:14 8.6 °C 7.4 °C 998.5 hPa WSW 0.8 km/h 3.2 km/h 92% 0 mm 23 W/m2
08:19 8.6 °C 7.4 °C 998.5 hPa WSW 1.4 km/h 4.8 km/h 92% 0 mm 23 W/m2
08:24 8.7 °C 7.4 °C 998.5 hPa West 1.8 km/h 4.8 km/h 92% 0 mm 26 W/m2
08:29 8.8 °C 7.6 °C 998.9 hPa West 1.1 km/h 4.8 km/h 92% 0 mm 39 W/m2
08:34 8.8 °C 7.7 °C 998.9 hPa West 0.2 km/h 4.8 km/h 92% 0 mm 40 W/m2
08:39 8.9 °C 7.7 °C 998.9 hPa West 0.5 km/h 4.8 km/h 92% 0 mm 40 W/m2
08:44 8.9 °C 7.8 °C 998.9 hPa West 0.8 km/h 4.8 km/h 92% 0 mm 37 W/m2
08:49 9.2 °C 7.9 °C 998.9 hPa West 0.3 km/h 3.2 km/h 92% 0 mm 47 W/m2
08:54 9.2 °C 8.1 °C 998.9 hPa West 3.1 km/h 8 km/h 92% 0 mm 88 W/m2
08:59 9.3 °C 8.1 °C 998.9 hPa West 3.1 km/h 9.7 km/h 91.6% 0 mm 84 W/m2
09:04 9.5 °C 8.1 °C 999.2 hPa West 2.1 km/h 9.7 km/h 91% 0 mm 74 W/m2
09:09 9.6 °C 8.2 °C 999.2 hPa West 2.6 km/h 9.7 km/h 91% 0 mm 49 W/m2
09:14 9.6 °C 8.2 °C 999.2 hPa West 2.6 km/h 8 km/h 91% 0 mm 54 W/m2
09:19 9.6 °C 8.2 °C 999.2 hPa West 2.4 km/h 6.4 km/h 91% 0 mm 69 W/m2
09:24 9.7 °C 8.3 °C 999.2 hPa West 1.3 km/h 4.8 km/h 91% 0 mm 70 W/m2
09:29 9.7 °C 8.3 °C 999.2 hPa West 3.2 km/h 8 km/h 91% 0 mm 56 W/m2
09:34 9.8 °C 8.4 °C 999.2 hPa West 0.8 km/h 4.8 km/h 91% 0 mm 54 W/m2
09:39 9.9 °C 8.5 °C 999.2 hPa West 2.4 km/h 8 km/h 91% 0 mm 77 W/m2
09:44 10.1 °C 8.6 °C 999.2 hPa West 4.8 km/h 12.9 km/h 90.7% 0 mm 83 W/m2
09:49 10.1 °C 8.6 °C 999.2 hPa WSW 8.9 km/h 19.3 km/h 90.3% 0 mm 102 W/m2
09:54 10.1 °C 8.5 °C 999.2 hPa WSW 7.1 km/h 19.3 km/h 90% 0 mm 107 W/m2
09:59 10.2 °C 8.6 °C 999.2 hPa WSW 7.4 km/h 14.5 km/h 89.9% 0 mm 214 W/m2
10:04 10.3 °C 8.7 °C 999.5 hPa WSW 5.6 km/h 12.9 km/h 89.4% 0 mm 214 W/m2
10:09 10.4 °C 8.7 °C 999.5 hPa WSW 4.8 km/h 12.9 km/h 89% 0 mm 220 W/m2
10:14 10.4 °C 8.7 °C 999.5 hPa WSW 8.4 km/h 12.9 km/h 88.6% 0 mm 220 W/m2
10:19 10.3 °C 8.4 °C 999.5 hPa WSW 7.4 km/h 14.5 km/h 88% 0 mm 211 W/m2
10:24 10.4 °C 8.5 °C 999.5 hPa WSW 4.5 km/h 11.3 km/h 88% 0 mm 102 W/m2
10:29 10.4 °C 8.5 °C 999.5 hPa WSW 6.1 km/h 12.9 km/h 88% 0 mm 100 W/m2
10:34 10.4 °C 8.5 °C 999.5 hPa West 4.8 km/h 12.9 km/h 88% 0 mm 83 W/m2
10:39 10.4 °C 8.5 °C 999.5 hPa WSW 6.8 km/h 12.9 km/h 88% 0 mm 156 W/m2
10:44 10.5 °C 8.6 °C 999.5 hPa WSW 7.7 km/h 16.1 km/h 88% 0 mm 290 W/m2
10:49 10.6 °C 8.7 °C 999.5 hPa SW 4 km/h 11.3 km/h 88% 0 mm 304 W/m2
10:54 10.8 °C 8.9 °C 999.5 hPa SW 5.6 km/h 11.3 km/h 87.7% 0 mm 315 W/m2
10:59 11.1 °C 9 °C 999.5 hPa SW 9 km/h 14.5 km/h 86.9% 0 mm 327 W/m2
11:04 11.5 °C 9.2 °C 999.5 hPa WSW 5.8 km/h 14.5 km/h 86% 0 mm 338 W/m2
11:09 11.7 °C 9.3 °C 999.9 hPa WSW 8.9 km/h 16.1 km/h 85% 0 mm 350 W/m2
11:14 11.7 °C 9.1 °C 999.9 hPa WSW 9.8 km/h 16.1 km/h 84% 0 mm 359 W/m2
11:19 11.8 °C 9.2 °C 999.9 hPa WSW 9.8 km/h 14.5 km/h 84% 0 mm 376 W/m2
11:24 12.2 °C 9.6 °C 999.9 hPa West 6.1 km/h 16.1 km/h 84% 0 mm 401 W/m2
11:29 12.4 °C 9.5 °C 999.9 hPa WSW 10 km/h 17.7 km/h 82.7% 0 mm 427 W/m2
11:34 12.6 °C 9.6 °C 999.9 hPa West 6.6 km/h 12.9 km/h 82% 0 mm 446 W/m2
11:39 12.8 °C 9.7 °C 999.9 hPa WNW 8.5 km/h 17.7 km/h 81.6% 0 mm 432 W/m2
11:44 12.9 °C 9.4 °C 999.9 hPa WSW 8.5 km/h 17.7 km/h 79.6% 0 mm 448 W/m2
11:49 12.8 °C 9.3 °C 999.9 hPa WSW 11.6 km/h 17.7 km/h 79% 0 mm 448 W/m2
11:54 13 °C 9.3 °C 999.9 hPa WSW 10.6 km/h 19.3 km/h 77.9% 0 mm 543 W/m2
11:59 13.2 °C 9.4 °C 1000.2 hPa West 9.7 km/h 19.3 km/h 78% 0 mm 601 W/m2
12:04 13.4 °C 9.6 °C 1000.2 hPa West 9 km/h 16.1 km/h 77.7% 0 mm 608 W/m2
12:09 13.7 °C 9.4 °C 1000.2 hPa WSW 11.1 km/h 17.7 km/h 75.5% 0 mm 624 W/m2
12:14 13.4 °C 9.2 °C 1000.2 hPa WSW 13 km/h 20.9 km/h 75% 0 mm 533 W/m2
12:19 13.2 °C 9 °C 1000.2 hPa West 10.6 km/h 20.9 km/h 75.6% 0 mm 483 W/m2
12:24 13.3 °C 9.2 °C 999.9 hPa WSW 10 km/h 20.9 km/h 75.8% 0 mm 490 W/m2
12:29 13.3 °C 9.1 °C 999.9 hPa West 12.1 km/h 22.5 km/h 75.6% 0 mm 504 W/m2
12:34 13.1 °C 8.7 °C 1000.2 hPa West 12.6 km/h 22.5 km/h 74.5% 0 mm 504 W/m2
12:39 12.9 °C 8.6 °C 1000.2 hPa WNW 11.7 km/h 19.3 km/h 75% 0 mm 478 W/m2
12:44 13 °C 8.7 °C 1000.2 hPa West 9.2 km/h 16.1 km/h 74.9% 0 mm 487 W/m2
12:49 13.4 °C 8.6 °C 1000.2 hPa West 12.4 km/h 20.9 km/h 72.6% 0 mm 494 W/m2
12:54 13.7 °C 8.6 °C 1000.2 hPa West 12.2 km/h 22.5 km/h 71.6% 0 mm 489 W/m2
12:59 13.6 °C 8.3 °C 1000.2 hPa West 12.2 km/h 22.5 km/h 70.6% 0 mm 497 W/m2
13:04 13.6 °C 8.2 °C 1000.2 hPa WNW 13.8 km/h 22.5 km/h 69.8% 0 mm 513 W/m2
13:09 13.6 °C 8.2 °C 1000.2 hPa WNW 11.7 km/h 20.9 km/h 69.8% 0 mm 547 W/m2
13:14 13.7 °C 8.2 °C 1000.2 hPa WNW 14.8 km/h 25.7 km/h 69.3% 0 mm 575 W/m2
13:19 13.8 °C 8.2 °C 1000.2 hPa West 10.1 km/h 22.5 km/h 69% 0 mm 476 W/m2
13:24 13.9 °C 8.2 °C 1000.2 hPa West 11.4 km/h 20.9 km/h 68.9% 0 mm 561 W/m2
13:29 14.1 °C 8.4 °C 1000.2 hPa West 10.5 km/h 20.9 km/h 68.7% 0 mm 527 W/m2
13:34 13.8 °C 8.2 °C 1000.2 hPa WNW 10.9 km/h 19.3 km/h 68.8% 0 mm 109 W/m2
13:39 13.3 °C 7.9 °C 1000.2 hPa WNW 10.6 km/h 19.3 km/h 69.9% 0 mm 128 W/m2
13:44 13.3 °C 8.2 °C 1000.2 hPa West 10.6 km/h 19.3 km/h 71% 0 mm 483 W/m2
13:49 13.8 °C 8.5 °C 1000.6 hPa West 11.3 km/h 19.3 km/h 70.3% 0 mm 499 W/m2
13:54 14 °C 8.6 °C 1000.6 hPa West 9.5 km/h 17.7 km/h 70% 0 mm 499 W/m2
13:59 13.8 °C 8.4 °C 1000.6 hPa WNW 14.6 km/h 24.1 km/h 69.6% 0 mm 475 W/m2
14:04 13.9 °C 8.3 °C 1000.6 hPa West 11.6 km/h 24.1 km/h 69% 0 mm 459 W/m2
14:09 13.9 °C 8.3 °C 1000.6 hPa WNW 13 km/h 20.9 km/h 68.9% 0 mm 468 W/m2
14:14 13.9 °C 8.2 °C 1000.6 hPa West 10.3 km/h 19.3 km/h 68.5% 0 mm 452 W/m2
14:19 14.2 °C 8.5 °C 1000.6 hPa West 8.4 km/h 16.1 km/h 68.7% 0 mm 452 W/m2
14:24 13.9 °C 8.2 °C 1000.9 hPa WNW 10.5 km/h 17.7 km/h 68.6% 0 mm 169 W/m2
14:29 13.6 °C 8.1 °C 1000.9 hPa WNW 10.1 km/h 16.1 km/h 69.4% 0 mm 473 W/m2
14:34 13.7 °C 8.2 °C 1000.9 hPa West 8.2 km/h 16.1 km/h 69.1% 0 mm 468 W/m2
14:39 14.2 °C 8.4 °C 1000.9 hPa West 10.8 km/h 19.3 km/h 68.2% 0 mm 476 W/m2
14:44 14.2 °C 8.5 °C 1000.9 hPa WSW 7.6 km/h 14.5 km/h 68.2% 0 mm 478 W/m2
14:49 14.4 °C 8.6 °C 1000.9 hPa West 12.1 km/h 19.3 km/h 67.9% 0 mm 478 W/m2
14:54 14.3 °C 8.4 °C 1000.9 hPa WSW 9.7 km/h 19.3 km/h 67.5% 0 mm 464 W/m2
14:59 14.3 °C 8.3 °C 1000.9 hPa WSW 12.7 km/h 27.4 km/h 67% 0 mm 431 W/m2
15:04 14.4 °C 8.3 °C 1000.9 hPa WSW 12.2 km/h 27.4 km/h 66.6% 0 mm 417 W/m2
15:09 14.6 °C 8.5 °C 1001.2 hPa WNW 8.9 km/h 19.3 km/h 67% 0 mm 417 W/m2
15:14 14.8 °C 8.6 °C 1001.2 hPa West 8 km/h 16.1 km/h 66.7% 0 mm 392 W/m2
15:19 14.7 °C 8.5 °C 1000.9 hPa West 12.1 km/h 22.5 km/h 66.4% 0 mm 394 W/m2
15:24 14.6 °C 8.9 °C 1000.9 hPa West 9.2 km/h 17.7 km/h 68.6% 0 mm 394 W/m2
15:29 14.7 °C 9.4 °C 1000.9 hPa West 8 km/h 19.3 km/h 70.3% 0 mm 369 W/m2
15:34 14.7 °C 9.3 °C 1001.2 hPa WNW 9.7 km/h 16.1 km/h 70.2% 0 mm 338 W/m2
15:39 14.4 °C 9.2 °C 1001.2 hPa WNW 14.2 km/h 22.5 km/h 70.8% 0 mm 336 W/m2
15:44 14.3 °C 9.1 °C 1001.2 hPa West 9 km/h 22.5 km/h 71% 0 mm 316 W/m2
15:49 14.6 °C 9.3 °C 1001.2 hPa West 9 km/h 17.7 km/h 71% 0 mm 338 W/m2
15:54 14.6 °C 9.4 °C 1001.2 hPa West 10 km/h 17.7 km/h 71.1% 0 mm 338 W/m2
15:59 14.6 °C 9.4 °C 1001.2 hPa West 11.1 km/h 16.1 km/h 71% 0 mm 334 W/m2
16:04 14.6 °C 9.4 °C 1001.2 hPa West 12.1 km/h 19.3 km/h 71.3% 0 mm 318 W/m2
16:09 14.4 °C 9.4 °C 1001.2 hPa West 9.7 km/h 19.3 km/h 71.8% 0 mm 304 W/m2
16:14 14.6 °C 9.4 °C 1001.2 hPa WSW 10.6 km/h 19.3 km/h 71.4% 0 mm 302 W/m2
16:19 14.6 °C 9.5 °C 1001.2 hPa WSW 8.7 km/h 16.1 km/h 71.5% 0 mm 271 W/m2
16:24 14.5 °C 9.4 °C 1001.6 hPa West 10.3 km/h 19.3 km/h 71.8% 0 mm 265 W/m2
16:29 14.2 °C 9.2 °C 1001.6 hPa WNW 11.9 km/h 20.9 km/h 72.3% 0 mm 204 W/m2
16:34 13.9 °C 9.1 °C 1001.6 hPa West 10.6 km/h 20.9 km/h 73% 0 mm 204 W/m2
16:39 13.8 °C 9.2 °C 1001.6 hPa WNW 11.7 km/h 20.9 km/h 73.8% 0 mm 174 W/m2
16:44 13.7 °C 9.1 °C 1001.6 hPa WNW 10.6 km/h 17.7 km/h 74% 0 mm 88 W/m2
16:49 13.4 °C 8.9 °C 1001.6 hPa WNW 8.4 km/h 16.1 km/h 74% 0 mm 67 W/m2
16:54 13.3 °C 8.9 °C 1001.6 hPa WNW 6 km/h 12.9 km/h 74.4% 0 mm 105 W/m2
16:59 13.3 °C 8.9 °C 1001.9 hPa NW 6.6 km/h 14.5 km/h 74.4% 0 mm 102 W/m2
17:04 13.3 °C 8.9 °C 1001.9 hPa WNW 6 km/h 11.3 km/h 74.7% 0 mm 98 W/m2
17:09 13.3 °C 9.1 °C 1001.9 hPa WNW 6 km/h 11.3 km/h 75% 0 mm 102 W/m2
17:14 13.4 °C 9.2 °C 1001.9 hPa WNW 3.7 km/h 8 km/h 75% 0 mm 102 W/m2
17:19 13.4 °C 9.1 °C 1001.9 hPa WNW 8.4 km/h 12.9 km/h 74.5% 0 mm 83 W/m2
17:24 13.3 °C 8.9 °C 1001.9 hPa WNW 4.8 km/h 12.9 km/h 74.8% 0 mm 58 W/m2
17:29 13.3 °C 8.9 °C 1002.3 hPa West 5 km/h 11.3 km/h 75% 0 mm 53 W/m2
17:34 13.2 °C 8.9 °C 1002.3 hPa WNW 3.9 km/h 11.3 km/h 75% 0 mm 44 W/m2
17:39 13.1 °C 8.8 °C 1002.3 hPa West 4.7 km/h 9.7 km/h 75% 0 mm 33 W/m2
17:44 13.1 °C 8.7 °C 1002.3 hPa West 2.4 km/h 8 km/h 75% 0 mm 23 W/m2
17:49 12.8 °C 8.7 °C 1002.3 hPa West 1.8 km/h 6.4 km/h 75.6% 0 mm 18 W/m2
17:54 12.6 °C 8.5 °C 1002.3 hPa West 3.9 km/h 8 km/h 76% 0 mm 14 W/m2
17:59 12.4 °C 8.3 °C 1002.3 hPa West 1.3 km/h 8 km/h 76% 0 mm 12 W/m2
18:04 12.3 °C 8.2 °C 1002.3 hPa West 0.8 km/h 3.2 km/h 76% 0 mm 9 W/m2
18:09 12.2 °C 8.2 °C 1002.6 hPa West 0.6 km/h 3.2 km/h 76.4% 0 mm 5 W/m2
18:14 12.1 °C 8.2 °C 1002.6 hPa West 0.2 km/h 1.6 km/h 77% 0 mm 0 W/m2
18:19 11.9 °C 8.1 °C 1002.6 hPa Calm   1.6 km/h 77% 0 mm 0 W/m2
18:24 11.8 °C 7.9 °C 1002.6 hPa Calm   1.6 km/h 77% 0 mm 0 W/m2
18:29 11.6 °C 7.8 °C 1002.6 hPa Calm     77.6% 0 mm 0 W/m2
18:34 11.4 °C 7.8 °C 1002.6 hPa West 0.5 km/h 1.6 km/h 78.4% 0 mm 0 W/m2
18:39 11.2 °C 7.8 °C 1002.6 hPa Calm     79.4% 0 mm 0 W/m2
18:44 11 °C 7.8 °C 1002.6 hPa Calm     80.4% 0 mm 0 W/m2
18:49 10.9 °C 7.8 °C 1002.9 hPa Calm     81.2% 0 mm 0 W/m2
18:54 10.9 °C 7.9 °C 1002.9 hPa Calm     82% 0 mm 0 W/m2
18:59 10.8 °C 7.8 °C 1002.9 hPa Calm     82% 0 mm 0 W/m2
19:04 10.6 °C 7.7 °C 1002.9 hPa Calm     82.2% 0 mm 0 W/m2
19:09 10.3 °C 7.6 °C 1002.9 hPa West 0.3 km/h 1.6 km/h 83% 0 mm 0 W/m2
19:14 10.1 °C 7.4 °C 1002.9 hPa Calm   1.6 km/h 83.5% 0 mm 0 W/m2
19:19 9.8 °C 7.3 °C 1002.9 hPa West 1 km/h 3.2 km/h 84.2% 0 mm 0 W/m2
19:24 9.7 °C 7.2 °C 1002.9 hPa West 2.3 km/h 4.8 km/h 85% 0 mm 0 W/m2
19:29 9.4 °C 7.1 °C 1002.9 hPa West 2.7 km/h 4.8 km/h 85.2% 0 mm 0 W/m2
19:34 9.4 °C 7.2 °C 1002.9 hPa West 3.5 km/h 6.4 km/h 86% 0 mm 0 W/m2
19:39 9.4 °C 7.2 °C 1002.9 hPa West 1.9 km/h 6.4 km/h 86% 0 mm 0 W/m2
19:44 9.4 °C 7.3 °C 1002.9 hPa West 2.6 km/h 6.4 km/h 87% 0 mm 0 W/m2
19:49 9.4 °C 7.3 °C 1002.9 hPa West 0.6 km/h 6.4 km/h 87% 0 mm 0 W/m2
19:54 9.2 °C 7.2 °C 1003.3 hPa West 0.2 km/h 3.2 km/h 87% 0 mm 0 W/m2
19:59 9 °C 7 °C 1003.3 hPa Calm     87% 0 mm 0 W/m2
20:04 8.9 °C 6.9 °C 1003.3 hPa Calm     87% 0 mm 0 W/m2
20:09 8.9 °C 6.9 °C 1003.3 hPa Calm     87% 0 mm 0 W/m2
20:14 8.8 °C 6.8 °C 1003.3 hPa Calm     87% 0 mm 0 W/m2
20:19 8.7 °C 6.7 °C 1003.3 hPa West 0.8 km/h 3.2 km/h 87% 0 mm 0 W/m2
20:24 8.6 °C 6.6 °C 1003.6 hPa West 1.1 km/h 3.2 km/h 87.3% 0 mm 0 W/m2
20:29 8.4 °C 6.5 °C 1003.6 hPa West 1 km/h 3.2 km/h 88% 0 mm 0 W/m2
20:34 8.4 °C 6.5 °C 1003.6 hPa West 0.5 km/h 3.2 km/h 88% 0 mm 0 W/m2
20:39 8.4 °C 6.5 °C 1003.6 hPa Calm   1.6 km/h 88% 0 mm 0 W/m2
20:44 8.3 °C 6.6 °C 1003.9 hPa West 0.3 km/h 1.6 km/h 89% 0 mm 0 W/m2
20:49 8.2 °C 6.5 °C 1003.9 hPa Calm   1.6 km/h 89% 0 mm 0 W/m2
20:54 8.2 °C 6.5 °C 1003.9 hPa Calm     89% 0 mm 0 W/m2
20:59 8.1 °C 6.4 °C 1003.9 hPa Calm     89% 0 mm 0 W/m2
21:04 8.1 °C 6.3 °C 1003.9 hPa Calm     89% 0 mm 0 W/m2
21:09 7.9 °C 6.2 °C 1003.9 hPa Calm     89% 0 mm 0 W/m2
21:14 7.9 °C 6.2 °C 1003.9 hPa Calm     89% 0 mm 0 W/m2
21:19 7.8 °C 6.1 °C 1004.3 hPa West 1.6 km/h 4.8 km/h 89% 0 mm 0 W/m2
21:24 7.7 °C 6.1 °C 1004.3 hPa West 2.7 km/h 4.8 km/h 89.4% 0 mm 0 W/m2
21:29 7.7 °C 6.2 °C 1004.3 hPa West 1.3 km/h 3.2 km/h 90% 0 mm 0 W/m2
21:34 7.7 °C 6.2 °C 1004.3 hPa West 0.8 km/h 3.2 km/h 90% 0 mm 0 W/m2
21:39 7.6 °C 6.1 °C 1004.3 hPa West 0.5 km/h 3.2 km/h 90% 0 mm 0 W/m2
21:44 7.5 °C 6 °C 1004.3 hPa Calm   3.2 km/h 90% 0 mm 0 W/m2
21:49 7.5 °C 6 °C 1004.3 hPa Calm     90% 0 mm 0 W/m2
21:54 7.4 °C 5.9 °C 1004.3 hPa Calm     90% 0 mm 0 W/m2
21:59 7.4 °C 5.9 °C 1004.6 hPa West 0.3 km/h 1.6 km/h 90% 0 mm 0 W/m2
22:04 7.2 °C 5.7 °C 1004.6 hPa Calm   1.6 km/h 90% 0 mm 0 W/m2
22:09 7.2 °C 5.7 °C 1004.6 hPa Calm     90% 0 mm 0 W/m2
22:14 7.2 °C 5.7 °C 1004.6 hPa Calm   1.6 km/h 90.2% 0 mm 0 W/m2
22:19 7.2 °C 5.7 °C 1004.6 hPa Calm     91% 0 mm 0 W/m2
22:24 7.1 °C 5.7 °C 1004.6 hPa Calm     91% 0 mm 0 W/m2
22:29 6.9 °C 5.5 °C 1004.6 hPa Calm     91% 0 mm 0 W/m2
22:34 6.8 °C 5.4 °C 1004.6 hPa Calm     91% 0 mm 0 W/m2
22:39 6.7 °C 5.3 °C 1005 hPa Calm     91% 0 mm 0 W/m2
22:44 6.7 °C 5.3 °C 1005 hPa West 0.3 km/h 1.6 km/h 91% 0 mm 0 W/m2
22:49 6.7 °C 5.3 °C 1005 hPa Calm   1.6 km/h 91% 0 mm 0 W/m2
22:54 6.6 °C 5.2 °C 1005 hPa Calm     91% 0 mm 0 W/m2
22:59 6.5 °C 5.1 °C 1005.3 hPa Calm     91% 0 mm 0 W/m2
23:04 6.4 °C 5.1 °C 1005.3 hPa Calm     91% 0 mm 0 W/m2
23:09 6.4 °C 5 °C 1005.3 hPa Calm     91% 0 mm 0 W/m2
23:14 6.4 °C 5 °C 1005.3 hPa West 0.6 km/h 1.6 km/h 91% 0 mm 0 W/m2
23:19 6.4 °C 5.1 °C 1005.3 hPa Calm   1.6 km/h 91.2% 0 mm 0 W/m2
23:24 6.5 °C 5.3 °C 1005.3 hPa Calm     92% 0 mm 0 W/m2
23:29 6.6 °C 5.3 °C 1005.3 hPa Calm     92% 0 mm 0 W/m2
23:34 6.5 °C 5.3 °C 1005.3 hPa Calm     92% 0 mm 0 W/m2
23:39 6.5 °C 5.3 °C 1005.6 hPa Calm     92% 0 mm 0 W/m2
23:44 6.4 °C 5.2 °C 1005.6 hPa Calm     92% 0 mm 0 W/m2
23:49 6.3 °C 5.2 °C 1005.6 hPa Calm     92% 0 mm 0 W/m2
23:54 6.3 °C 5.1 °C 1005.6 hPa Calm     92% 0 mm 0 W/m2
23:59 6.2 °C 5 °C 1005.6 hPa Calm     92% 0 mm 0 W/m2
Bath Spa Weather
Compliments of Weather Underground - 2 mb